x

East Gulf - 208 Mn West Of Naples, Fl (42003) Wave Buoy

5:50pm - Fri 24th Feb 2017 All times are EST. -5 hours from GMT.

  • Sig Wave height 1.6ft
  • Swell Direction
  • Peak Period 5s
  • Average Period 4s
  • Wind
    4mph, 7mph gusts
  • Sea Temp 77°f
  • Air Temp 73°f
  • Sea Pressure 1010.3mb
  • East Gulf - 208 Mn West Of Naples, Fl
  • East Gulf - 208 Mn West Of Naples, Fl

More Historic Weather Station data

Upgrade to MSW Pro to gain access to the past 30 days of data for over 8000 Wavebouys and Weather Stations around the globe.

Join Pro

Comparision Forecast

View Surf forecast
   
Fri 02/24 5:50pm 1.6ft 5s 4s 4 7 mph 1010.3mb 77f 73f
4:50pm 1.6ft 5s 4s 2 4 mph 1010.1mb 77f 74f
3:50pm 2ft 5s 4s  -  2 mph 1010.2mb 77f 73f
2:50pm 2ft 5s 4s 2 4 mph 1010.3mb 76f 73f
1:50pm 2.5ft 6s 4s 4 7 mph 1010.7mb 76f 72f
12:50pm 2.5ft 5s 4s 7
mph
1011.2mb 75f 72f
11:50am 2.5ft 6s 4s 9
mph
1011.3mb 75f 73f
10:50am 2.5ft 5s 4s 11 13 mph 1011.1mb 75f 73f
9:50am 3ft 5s 4s 11 13 mph 1010.7mb 74f 73f
8:50am 3ft 6s 5s 11 13 mph 1010.4mb 74f 73f
7:50am 3.5ft 6s 5s 11 13 mph 1010.2mb 74f 73f
6:50am 3.5ft 6s 5s 11
mph
1009.9mb 74f 73f
5:50am 4ft 6s 5s 11 13 mph 1009.6mb 74f 73f
4:50am 3.5ft 6s 5s 13 16 mph 1009.5mb 74f 73f
3:50am 3.5ft 6s 5s 11 13 mph 1009.4mb 74f 73f
2:50am 4ft 6s 5s 9 11 mph 1009.6mb 74f 73f
1:50am 3.5ft 6s 5s 9 11 mph 1010mb 74f 72f
12:50am 4.5ft 6s 5s 11 13 mph 1010.1mb 74f 72f
Thu 02/23 11:50pm 4.5ft 6s 5s 13 16 mph 1010.3mb 74f 72f
10:50pm 4.5ft 7s 5s 13 16 mph 1009.9mb 74f 73f
9:50pm 4ft 6s 5s 13 16 mph 1009.5mb 74f 73f
7:50pm 4.5ft 6s 5s 13 16 mph 1008.1mb 74f 73f
6:50pm 4.5ft 6s 5s 13 16 mph 1007.7mb 74f 72f
5:50pm 4.5ft 7s 5s 13 18 mph 1007.6mb 74f 73f
4:50pm 4.5ft 7s 5s 13 16 mph 1007.1mb 74f 73f
3:50pm 5ft 7s 5s 13 16 mph 1006.9mb 74f 72f
2:50pm 4.5ft 8s 5s 18 20 mph 1006.8mb 74f 72f
1:50pm 4.5ft 6s 5s 18 20 mph 1007.2mb 74f 72f
12:50pm 5ft 8s 5s 16 20 mph 1007.6mb 74f 72f
11:50am 5ft 8s 5s 18 20 mph 1008mb 74f 72f
10:50am 5ft 8s 5s 18 20 mph 1008mb 74f 72f
9:50am 6ft 8s 6s 16 18 mph 1007.8mb 74f 72f
8:50am 6ft 7s 6s 16 20 mph 1007.4mb 74f 72f
7:50am 6.5ft 8s 6s 18 22 mph 1006.6mb 74f 72f
6:50am 6ft 7s 6s 16 20 mph 1006.2mb 74f 71f
5:50am 6ft 8s 6s 16 18 mph 1005.5mb 74f 71f
4:50am 6ft 8s 6s 16 20 mph 1005.1mb 74f 71f
3:50am 7ft 8s 6s 13 16 mph 1004.8mb 74f 70f
2:50am 7ft 7s 6s 16 18 mph 1005.2mb 74f 70f
1:50am 7ft 8s 6s 16 20 mph 1005.7mb 74f 69f
12:50am 7ft 7s 6s 25 29 mph 1005.9mb 74f 69f
Wed 02/22 11:50pm 8ft 8s 6s 20 25 mph 1006.1mb 74f 71f
10:50pm 7ft 7s 6s 22 25 mph 1006.4mb 74f 71f
9:50pm 7ft 8s 6s 22 25 mph 1006.8mb 74f 71f
8:50pm 6.5ft 7s 6s 22 25 mph 1006.6mb 75f 71f
7:50pm 6ft 7s 5s 22 27 mph 1006.2mb 75f 71f
6:50pm 5ft 6s 5s 20 25 mph 1005.9mb 75f 71f
5:50pm 5ft 6s 5s 18 20 mph 1005.6mb 75f 71f
4:50pm 5ft 5s 5s 20 25 mph 1005.5mb 75f 71f
3:50pm 4.5ft 6s 5s 20 25 mph 1005.7mb 75f 70f
2:50pm 4.5ft 6s 5s 20 22 mph 1005.7mb 75f 72f
1:50pm 4ft 6s 5s 18 22 mph 1006.2mb 75f 71f
12:50pm 4.5ft 6s 5s 16 20 mph 1006.9mb 75f 71f
11:50am 4.5ft 6s 5s 13 18 mph 1007.7mb 75f 70f
10:50am 5ft 6s 5s 13 18 mph 1008mb 75f 70f
9:50am 4.5ft 6s 5s 20 31 mph 1007.9mb 74f 65f
8:50am 4.5ft 6s 5s 16 20 mph 1007.7mb 74f 71f
7:50am 4.5ft 6s 5s 18 22 mph 1007.6mb 74f 71f
5:50am 5ft 6s 5s 11 16 mph 1007.3mb 74f 71f
4:50am 5.5ft 7s 5s 13 16 mph 1007.2mb 75f 71f
3:50am 5.5ft 7s 6s 18 22 mph 1007.3mb 75f 71f
2:50am 5.5ft 7s 6s 13 18 mph 1007.8mb 75f 70f
1:50am 6.5ft 8s 6s 13 18 mph 1009.2mb 75f 69f
12:50am 8ft 7s 6s 13 18 mph 1009.9mb 75f 67f
Tue 02/21 11:50pm 7.5ft 6s 6s 11 16 mph 1011.1mb 75f 63f
10:50pm 8.5ft 6s 6s 22 29 mph 1012.2mb 75f 62f
9:50pm 6ft 7s 5s 29 34 mph 1011.7mb 75f 67f
8:50pm 6ft 6s 5s 27 34 mph 1010.9mb 75f 70f
7:50pm 5ft 6s 5s 27 31 mph 1010.2mb 75f 75f
6:50pm 5ft 6s 5s 11 18 mph 1010.9mb 76f 74f
5:50pm 5ft 6s 5s 20 25 mph 1011.4mb 76f 76f
4:50pm 5ft 6s 5s 22 25 mph 1011.5mb 76f 75f
3:50pm 4.5ft 5s 4s 22 29 mph 1011.9mb 76f 76f
2:50pm 4ft 5s 4s 25 29 mph 1012.7mb 76f 76f
1:50pm 3.5ft 5s 4s 22 25 mph 1014.1mb 76f 76f
12:50pm 3.5ft 5s 4s 22 27 mph 1015.3mb 76f 76f
11:50am 3ft 5s 4s 22 25 mph 1016.7mb 75f 75f
10:50am 3ft 4s 4s 20 22 mph 1017.1mb 75f 75f
9:50am 2.5ft 4s 4s 16 20 mph 1017.2mb 75f 75f
8:50am 2.5ft 4s 4s 18 20 mph 1017mb 75f 75f
7:50am 2.5ft 4s 4s 16 18 mph 1016.5mb 75f 75f
6:50am 2ft 5s 4s 13 16 mph 1016.8mb 75f 75f
5:50am 2.5ft 4s 4s 16 18 mph 1016.2mb 75f 75f
4:50am 2.5ft 4s 4s 16 18 mph 1016.3mb 75f 74f
3:50am 2.5ft 6s 4s 13 16 mph 1016.2mb 75f 74f
2:50am 2.5ft 6s 4s 13 16 mph 1016.7mb 75f 74f
1:50am 2.5ft 5s 4s 16 18 mph 1016.8mb 75f 74f
12:50am 2.5ft 6s 4s 13
mph
1017.2mb 75f 74f